sensor_id;sensor_type;location;lat;lon;timestamp;temperature;humidity
9393;DHT22;4736;52.508;13.422;2023-03-01T00:00:21;-0.70;63.50
9393;DHT22;4736;52.508;13.422;2023-03-01T00:03:24;-0.70;63.60
9393;DHT22;4736;52.508;13.422;2023-03-01T00:06:29;-0.70;63.70
9393;DHT22;4736;52.508;13.422;2023-03-01T00:09:32;-0.70;63.80
9393;DHT22;4736;52.508;13.422;2023-03-01T00:12:35;-0.80;63.80
9393;DHT22;4736;52.508;13.422;2023-03-01T00:15:39;-0.80;63.90
9393;DHT22;4736;52.508;13.422;2023-03-01T00:18:43;-0.90;64.00
9393;DHT22;4736;52.508;13.422;2023-03-01T00:21:47;-0.80;64.00
9393;DHT22;4736;52.508;13.422;2023-03-01T00:24:55;-0.90;64.10
9393;DHT22;4736;52.508;13.422;2023-03-01T00:27:58;-0.90;64.20
9393;DHT22;4736;52.508;13.422;2023-03-01T00:31:03;-0.90;64.40
9393;DHT22;4736;52.508;13.422;2023-03-01T00:34:06;-0.90;64.40
9393;DHT22;4736;52.508;13.422;2023-03-01T00:37:11;-0.90;64.40
9393;DHT22;4736;52.508;13.422;2023-03-01T00:40:14;-1.00;64.50
9393;DHT22;4736;52.508;13.422;2023-03-01T00:43:18;-1.00;64.60
9393;DHT22;4736;52.508;13.422;2023-03-01T00:46:22;-1.00;64.70
9393;DHT22;4736;52.508;13.422;2023-03-01T00:49:26;-1.00;64.80
9393;DHT22;4736;52.508;13.422;2023-03-01T00:52:30;-1.00;64.90
9393;DHT22;4736;52.508;13.422;2023-03-01T00:55:33;-1.00;65.00
9393;DHT22;4736;52.508;13.422;2023-03-01T00:58:39;-1.00;65.00
9393;DHT22;4736;52.508;13.422;2023-03-01T01:01:42;-1.00;65.10
9393;DHT22;4736;52.508;13.422;2023-03-01T01:04:45;-1.00;65.10
9393;DHT22;4736;52.508;13.422;2023-03-01T01:07:50;-1.00;65.20
9393;DHT22;4736;52.508;13.422;2023-03-01T01:10:53;-1.00;65.30
9393;DHT22;4736;52.508;13.422;2023-03-01T01:13:57;-1.00;65.40
9393;DHT22;4736;52.508;13.422;2023-03-01T01:17:00;-1.00;65.50
9393;DHT22;4736;52.508;13.422;2023-03-01T01:20:04;-1.00;65.60
9393;DHT22;4736;52.508;13.422;2023-03-01T01:23:09;-1.00;65.50
9393;DHT22;4736;52.508;13.422;2023-03-01T01:26:14;-1.00;65.50
9393;DHT22;4736;52.508;13.422;2023-03-01T01:29:17;-1.00;65.60
9393;DHT22;4736;52.508;13.422;2023-03-01T01:32:20;-1.10;65.60
9393;DHT22;4736;52.508;13.422;2023-03-01T01:35:23;-1.10;65.70
9393;DHT22;4736;52.508;13.422;2023-03-01T01:38:27;-1.10;65.70
9393;DHT22;4736;52.508;13.422;2023-03-01T01:41:31;-1.10;65.70
9393;DHT22;4736;52.508;13.422;2023-03-01T01:44:34;-1.10;65.80
9393;DHT22;4736;52.508;13.422;2023-03-01T01:47:37;-1.10;65.80
9393;DHT22;4736;52.508;13.422;2023-03-01T01:50:41;-1.10;65.80
9393;DHT22;4736;52.508;13.422;2023-03-01T01:53:50;-1.10;65.80
9393;DHT22;4736;52.508;13.422;2023-03-01T01:56:56;-1.10;65.80
9393;DHT22;4736;52.508;13.422;2023-03-01T02:00:07;-1.10;65.80
9393;DHT22;4736;52.508;13.422;2023-03-01T02:03:14;-1.10;65.80
9393;DHT22;4736;52.508;13.422;2023-03-01T02:06:24;-1.10;65.80
9393;DHT22;4736;52.508;13.422;2023-03-01T02:09:32;-1.10;65.70
9393;DHT22;4736;52.508;13.422;2023-03-01T02:12:36;-1.10;65.70
9393;DHT22;4736;52.508;13.422;2023-03-01T02:15:41;-1.10;65.60
9393;DHT22;4736;52.508;13.422;2023-03-01T02:18:45;-1.10;65.80
9393;DHT22;4736;52.508;13.422;2023-03-01T02:21:55;-1.10;65.80
9393;DHT22;4736;52.508;13.422;2023-03-01T02:25:12;-1.10;65.90
9393;DHT22;4736;52.508;13.422;2023-03-01T02:28:25;-1.20;65.90
9393;DHT22;4736;52.508;13.422;2023-03-01T02:31:28;-1.10;66.00
9393;DHT22;4736;52.508;13.422;2023-03-01T02:34:46;-1.20;65.90
9393;DHT22;4736;52.508;13.422;2023-03-01T02:37:50;-1.20;65.90
9393;DHT22;4736;52.508;13.422;2023-03-01T02:40:54;-1.20;65.80
9393;DHT22;4736;52.508;13.422;2023-03-01T02:44:01;-1.20;65.80
9393;DHT22;4736;52.508;13.422;2023-03-01T02:47:04;-1.20;65.80
9393;DHT22;4736;52.508;13.422;2023-03-01T02:50:22;-1.30;65.80
9393;DHT22;4736;52.508;13.422;2023-03-01T02:53:35;-1.30;65.80
9393;DHT22;4736;52.508;13.422;2023-03-01T02:56:43;-1.30;65.80
9393;DHT22;4736;52.508;13.422;2023-03-01T02:59:52;-1.30;65.80
9393;DHT22;4736;52.508;13.422;2023-03-01T03:02:56;-1.30;65.80
9393;DHT22;4736;52.508;13.422;2023-03-01T03:06:00;-1.30;65.90
9393;DHT22;4736;52.508;13.422;2023-03-01T03:09:03;-1.30;65.90
9393;DHT22;4736;52.508;13.422;2023-03-01T03:12:06;-1.30;66.00
9393;DHT22;4736;52.508;13.422;2023-03-01T03:15:11;-1.30;66.10
9393;DHT22;4736;52.508;13.422;2023-03-01T03:18:16;-1.40;66.10
9393;DHT22;4736;52.508;13.422;2023-03-01T03:21:20;-1.40;66.20
9393;DHT22;4736;52.508;13.422;2023-03-01T03:24:23;-1.50;66.20
9393;DHT22;4736;52.508;13.422;2023-03-01T03:27:27;-1.50;66.20
9393;DHT22;4736;52.508;13.422;2023-03-01T03:30:31;-1.50;66.30
9393;DHT22;4736;52.508;13.422;2023-03-01T03:33:35;-1.50;66.40
9393;DHT22;4736;52.508;13.422;2023-03-01T03:36:38;-1.50;66.40
9393;DHT22;4736;52.508;13.422;2023-03-01T03:39:41;-1.50;66.50
9393;DHT22;4736;52.508;13.422;2023-03-01T03:42:44;-1.50;66.50
9393;DHT22;4736;52.508;13.422;2023-03-01T03:45:50;-1.50;66.60
9393;DHT22;4736;52.508;13.422;2023-03-01T03:48:54;-1.50;66.70
9393;DHT22;4736;52.508;13.422;2023-03-01T03:51:57;-1.50;66.90
9393;DHT22;4736;52.508;13.422;2023-03-01T03:55:00;-1.60;66.90
9393;DHT22;4736;52.508;13.422;2023-03-01T03:58:03;-1.60;67.00
9393;DHT22;4736;52.508;13.422;2023-03-01T04:01:10;-1.60;67.20
9393;DHT22;4736;52.508;13.422;2023-03-01T04:04:13;-1.60;67.20
9393;DHT22;4736;52.508;13.422;2023-03-01T04:07:19;-1.60;67.30
9393;DHT22;4736;52.508;13.422;2023-03-01T04:10:22;-1.60;67.40
9393;DHT22;4736;52.508;13.422;2023-03-01T04:13:25;-1.60;67.50
9393;DHT22;4736;52.508;13.422;2023-03-01T04:16:30;-1.60;67.60
9393;DHT22;4736;52.508;13.422;2023-03-01T04:19:34;-1.70;67.60
9393;DHT22;4736;52.508;13.422;2023-03-01T04:22:38;-1.70;67.80
9393;DHT22;4736;52.508;13.422;2023-03-01T04:25:44;-1.70;67.90
9393;DHT22;4736;52.508;13.422;2023-03-01T04:28:48;-1.70;68.00
9393;DHT22;4736;52.508;13.422;2023-03-01T04:31:55;-1.70;68.20
9393;DHT22;4736;52.508;13.422;2023-03-01T04:34:58;-1.70;68.30
9393;DHT22;4736;52.508;13.422;2023-03-01T04:38:01;-1.70;68.40
9393;DHT22;4736;52.508;13.422;2023-03-01T04:41:05;-1.70;68.60
9393;DHT22;4736;52.508;13.422;2023-03-01T04:44:08;-1.70;68.60
9393;DHT22;4736;52.508;13.422;2023-03-01T04:47:13;-1.70;68.70
9393;DHT22;4736;52.508;13.422;2023-03-01T04:50:17;-1.70;68.70
9393;DHT22;4736;52.508;13.422;2023-03-01T04:53:21;-1.80;68.90
9393;DHT22;4736;52.508;13.422;2023-03-01T04:56:24;-1.80;69.00
9393;DHT22;4736;52.508;13.422;2023-03-01T04:59:28;-1.80;69.00
9393;DHT22;4736;52.508;13.422;2023-03-01T05:02:32;-1.80;69.00
9393;DHT22;4736;52.508;13.422;2023-03-01T05:05:37;-1.80;69.10
9393;DHT22;4736;52.508;13.422;2023-03-01T05:08:41;-1.90;69.10
9393;DHT22;4736;52.508;13.422;2023-03-01T05:11:46;-1.90;69.10
9393;DHT22;4736;52.508;13.422;2023-03-01T05:14:49;-1.90;69.20
9393;DHT22;4736;52.508;13.422;2023-03-01T05:17:55;-1.90;69.30
9393;DHT22;4736;52.508;13.422;2023-03-01T05:21:03;-1.90;69.40
9393;DHT22;4736;52.508;13.422;2023-03-01T05:24:07;-1.90;69.60
9393;DHT22;4736;52.508;13.422;2023-03-01T05:27:13;-1.90;69.60
9393;DHT22;4736;52.508;13.422;2023-03-01T05:30:17;-1.90;69.70
9393;DHT22;4736;52.508;13.422;2023-03-01T05:33:21;-1.90;69.80
9393;DHT22;4736;52.508;13.422;2023-03-01T05:36:24;-1.90;69.90
9393;DHT22;4736;52.508;13.422;2023-03-01T05:39:29;-1.90;70.00
9393;DHT22;4736;52.508;13.422;2023-03-01T05:42:33;-2.00;70.00
9393;DHT22;4736;52.508;13.422;2023-03-01T05:45:37;-2.00;70.10
9393;DHT22;4736;52.508;13.422;2023-03-01T05:48:42;-2.00;70.10
9393;DHT22;4736;52.508;13.422;2023-03-01T05:51:48;-2.10;70.10
9393;DHT22;4736;52.508;13.422;2023-03-01T05:54:51;-2.10;70.30
9393;DHT22;4736;52.508;13.422;2023-03-01T05:57:54;-2.10;70.40
9393;DHT22;4736;52.508;13.422;2023-03-01T06:00:58;-2.10;70.40
9393;DHT22;4736;52.508;13.422;2023-03-01T06:04:03;-2.10;70.50
9393;DHT22;4736;52.508;13.422;2023-03-01T06:07:07;-2.10;70.60
9393;DHT22;4736;52.508;13.422;2023-03-01T06:10:11;-2.10;70.70
9393;DHT22;4736;52.508;13.422;2023-03-01T06:13:14;-2.10;70.70
9393;DHT22;4736;52.508;13.422;2023-03-01T06:16:18;-2.10;70.80
9393;DHT22;4736;52.508;13.422;2023-03-01T06:19:22;-2.00;70.90
9393;DHT22;4736;52.508;13.422;2023-03-01T06:22:25;-1.90;70.90
9393;DHT22;4736;52.508;13.422;2023-03-01T06:25:28;-1.90;71.00
9393;DHT22;4736;52.508;13.422;2023-03-01T06:28:31;-1.80;71.00
9393;DHT22;4736;52.508;13.422;2023-03-01T06:31:34;-1.70;71.00
9393;DHT22;4736;52.508;13.422;2023-03-01T06:34:38;-1.70;71.00
9393;DHT22;4736;52.508;13.422;2023-03-01T06:37:41;-1.60;71.00
9393;DHT22;4736;52.508;13.422;2023-03-01T06:40:45;-1.50;71.10
9393;DHT22;4736;52.508;13.422;2023-03-01T06:43:54;-1.50;71.00
9393;DHT22;4736;52.508;13.422;2023-03-01T06:46:57;-1.30;70.90
9393;DHT22;4736;52.508;13.422;2023-03-01T06:50:02;-1.30;70.80
9393;DHT22;4736;52.508;13.422;2023-03-01T06:53:05;-1.10;70.90
9393;DHT22;4736;52.508;13.422;2023-03-01T06:56:08;-1.00;70.70
9393;DHT22;4736;52.508;13.422;2023-03-01T06:59:12;-1.00;70.30
9393;DHT22;4736;52.508;13.422;2023-03-01T07:02:16;-0.90;70.20
9393;DHT22;4736;52.508;13.422;2023-03-01T07:05:20;-0.70;70.20
9393;DHT22;4736;52.508;13.422;2023-03-01T07:08:23;-0.50;70.40
9393;DHT22;4736;52.508;13.422;2023-03-01T07:11:26;-0.30;69.80
9393;DHT22;4736;52.508;13.422;2023-03-01T07:14:29;-0.10;69.40
9393;DHT22;4736;52.508;13.422;2023-03-01T07:17:32;-0.10;69.00
9393;DHT22;4736;52.508;13.422;2023-03-01T07:20:36;0.00;69.20
9393;DHT22;4736;52.508;13.422;2023-03-01T07:23:39;0.30;68.70
9393;DHT22;4736;52.508;13.422;2023-03-01T07:26:43;0.40;68.20
9393;DHT22;4736;52.508;13.422;2023-03-01T07:29:46;0.50;68.10
9393;DHT22;4736;52.508;13.422;2023-03-01T07:32:49;0.50;68.00
9393;DHT22;4736;52.508;13.422;2023-03-01T07:35:57;0.60;67.80
9393;DHT22;4736;52.508;13.422;2023-03-01T07:39:00;0.60;67.70
9393;DHT22;4736;52.508;13.422;2023-03-01T07:42:05;0.60;67.60
9393;DHT22;4736;52.508;13.422;2023-03-01T07:45:08;0.80;67.40
9393;DHT22;4736;52.508;13.422;2023-03-01T07:48:11;0.80;67.20
9393;DHT22;4736;52.508;13.422;2023-03-01T07:51:16;1.00;67.00
9393;DHT22;4736;52.508;13.422;2023-03-01T07:54:21;1.00;66.50
9393;DHT22;4736;52.508;13.422;2023-03-01T07:57:25;1.10;65.90
9393;DHT22;4736;52.508;13.422;2023-03-01T08:00:28;1.20;65.00
9393;DHT22;4736;52.508;13.422;2023-03-01T08:03:32;1.20;64.70
9393;DHT22;4736;52.508;13.422;2023-03-01T08:06:36;1.40;64.50
9393;DHT22;4736;52.508;13.422;2023-03-01T08:09:39;1.50;64.10
9393;DHT22;4736;52.508;13.422;2023-03-01T08:12:42;1.60;63.40
9393;DHT22;4736;52.508;13.422;2023-03-01T08:15:45;1.70;63.20
9393;DHT22;4736;52.508;13.422;2023-03-01T08:18:48;1.80;63.00
9393;DHT22;4736;52.508;13.422;2023-03-01T08:21:53;2.00;62.70
9393;DHT22;4736;52.508;13.422;2023-03-01T08:24:56;2.20;62.20
9393;DHT22;4736;52.508;13.422;2023-03-01T08:27:59;2.30;61.70
9393;DHT22;4736;52.508;13.422;2023-03-01T08:31:02;2.50;60.70
9393;DHT22;4736;52.508;13.422;2023-03-01T08:34:08;2.50;60.30
9393;DHT22;4736;52.508;13.422;2023-03-01T08:37:13;2.60;60.40
9393;DHT22;4736;52.508;13.422;2023-03-01T08:40:16;2.80;60.50
9393;DHT22;4736;52.508;13.422;2023-03-01T08:43:19;2.90;59.80
9393;DHT22;4736;52.508;13.422;2023-03-01T08:46:23;2.90;57.70
9393;DHT22;4736;52.508;13.422;2023-03-01T08:49:26;3.00;56.10
9393;DHT22;4736;52.508;13.422;2023-03-01T08:52:32;3.00;56.00
9393;DHT22;4736;52.508;13.422;2023-03-01T08:55:35;3.00;55.80
9393;DHT22;4736;52.508;13.422;2023-03-01T08:58:39;3.10;55.70
9393;DHT22;4736;52.508;13.422;2023-03-01T09:01:42;3.10;56.30
9393;DHT22;4736;52.508;13.422;2023-03-01T09:04:46;3.40;56.00
9393;DHT22;4736;52.508;13.422;2023-03-01T09:07:50;3.70;55.10
9393;DHT22;4736;52.508;13.422;2023-03-01T09:10:53;3.80;54.60
9393;DHT22;4736;52.508;13.422;2023-03-01T09:13:57;3.90;54.70
9393;DHT22;4736;52.508;13.422;2023-03-01T09:17:00;4.00;54.40
9393;DHT22;4736;52.508;13.422;2023-03-01T09:20:05;4.10;53.70
9393;DHT22;4736;52.508;13.422;2023-03-01T09:23:10;4.00;54.20
9393;DHT22;4736;52.508;13.422;2023-03-01T09:26:14;4.20;53.80
9393;DHT22;4736;52.508;13.422;2023-03-01T09:29:18;4.50;53.70
9393;DHT22;4736;52.508;13.422;2023-03-01T09:32:21;4.70;53.90
9393;DHT22;4736;52.508;13.422;2023-03-01T09:35:24;4.80;52.40
9393;DHT22;4736;52.508;13.422;2023-03-01T09:38:29;5.00;52.30
9393;DHT22;4736;52.508;13.422;2023-03-01T09:41:55;5.10;51.20
9393;DHT22;4736;52.508;13.422;2023-03-01T09:45:05;5.10;50.50
9393;DHT22;4736;52.508;13.422;2023-03-01T09:48:15;5.10;50.60
9393;DHT22;4736;52.508;13.422;2023-03-01T09:51:23;5.20;50.70
9393;DHT22;4736;52.508;13.422;2023-03-01T09:54:29;5.30;51.10
9393;DHT22;4736;52.508;13.422;2023-03-01T09:57:38;5.60;50.70
9393;DHT22;4736;52.508;13.422;2023-03-01T10:00:46;5.70;50.80
9393;DHT22;4736;52.508;13.422;2023-03-01T10:04:02;5.80;50.90
9393;DHT22;4736;52.508;13.422;2023-03-01T10:07:21;6.10;50.20
9393;DHT22;4736;52.508;13.422;2023-03-01T10:10:33;6.10;50.00
9393;DHT22;4736;52.508;13.422;2023-03-01T10:13:44;6.30;49.50
9393;DHT22;4736;52.508;13.422;2023-03-01T10:16:54;6.40;49.20
9393;DHT22;4736;52.508;13.422;2023-03-01T10:20:17;6.60;49.30
9393;DHT22;4736;52.508;13.422;2023-03-01T10:23:22;6.80;48.20
9393;DHT22;4736;52.508;13.422;2023-03-01T10:26:43;6.80;48.40
9393;DHT22;4736;52.508;13.422;2023-03-01T10:29:53;6.80;48.60
9393;DHT22;4736;52.508;13.422;2023-03-01T10:32:59;6.90;47.80
9393;DHT22;4736;52.508;13.422;2023-03-01T10:36:04;7.00;47.30
9393;DHT22;4736;52.508;13.422;2023-03-01T10:39:14;6.90;47.40
9393;DHT22;4736;52.508;13.422;2023-03-01T10:42:26;6.90;47.60
9393;DHT22;4736;52.508;13.422;2023-03-01T10:45:35;6.90;47.30
9393;DHT22;4736;52.508;13.422;2023-03-01T10:48:38;6.90;47.70
9393;DHT22;4736;52.508;13.422;2023-03-01T10:51:43;7.00;47.20
9393;DHT22;4736;52.508;13.422;2023-03-01T10:54:52;7.10;47.20
9393;DHT22;4736;52.508;13.422;2023-03-01T10:58:18;7.20;47.00
9393;DHT22;4736;52.508;13.422;2023-03-01T11:01:27;7.50;47.00
9393;DHT22;4736;52.508;13.422;2023-03-01T11:04:31;7.70;46.40
9393;DHT22;4736;52.508;13.422;2023-03-01T11:07:47;7.80;45.30
9393;DHT22;4736;52.508;13.422;2023-03-01T11:10:50;8.00;45.50
9393;DHT22;4736;52.508;13.422;2023-03-01T11:13:57;8.00;44.90
9393;DHT22;4736;52.508;13.422;2023-03-01T11:17:02;8.20;43.90
9393;DHT22;4736;52.508;13.422;2023-03-01T11:20:25;8.20;44.00
9393;DHT22;4736;52.508;13.422;2023-03-01T11:23:32;8.30;44.60
9393;DHT22;4736;52.508;13.422;2023-03-01T11:26:38;8.00;44.30
9393;DHT22;4736;52.508;13.422;2023-03-01T11:29:46;8.10;44.60
9393;DHT22;4736;52.508;13.422;2023-03-01T11:33:03;8.10;44.60
9393;DHT22;4736;52.508;13.422;2023-03-01T11:36:15;8.30;43.60
9393;DHT22;4736;52.508;13.422;2023-03-01T11:39:28;8.30;43.40
9393;DHT22;4736;52.508;13.422;2023-03-01T11:42:46;8.30;43.20
9393;DHT22;4736;52.508;13.422;2023-03-01T11:49:37;8.60;41.50
9393;DHT22;4736;52.508;13.422;2023-03-01T11:52:52;8.80;40.70
9393;DHT22;4736;52.508;13.422;2023-03-01T11:56:09;8.60;41.10
9393;DHT22;4736;52.508;13.422;2023-03-01T11:59:50;8.50;41.90
9393;DHT22;4736;52.508;13.422;2023-03-01T12:03:16;8.60;41.20
9393;DHT22;4736;52.508;13.422;2023-03-01T12:06:48;8.70;41.20
9393;DHT22;4736;52.508;13.422;2023-03-01T12:10:16;8.60;41.30
9393;DHT22;4736;52.508;13.422;2023-03-01T12:13:55;8.60;41.80
9393;DHT22;4736;52.508;13.422;2023-03-01T12:17:16;8.60;40.80
9393;DHT22;4736;52.508;13.422;2023-03-01T12:20:30;8.60;41.10
9393;DHT22;4736;52.508;13.422;2023-03-01T12:23:56;8.70;41.20
9393;DHT22;4736;52.508;13.422;2023-03-01T12:27:13;9.00;40.90
9393;DHT22;4736;52.508;13.422;2023-03-01T12:30:30;9.00;40.60
9393;DHT22;4736;52.508;13.422;2023-03-01T12:33:45;8.90;40.20
9393;DHT22;4736;52.508;13.422;2023-03-01T12:37:03;9.00;41.20
9393;DHT22;4736;52.508;13.422;2023-03-01T12:40:26;9.20;40.30
9393;DHT22;4736;52.508;13.422;2023-03-01T12:43:41;9.40;40.10
9393;DHT22;4736;52.508;13.422;2023-03-01T12:46:56;9.50;40.70
9393;DHT22;4736;52.508;13.422;2023-03-01T12:50:11;9.60;39.60
9393;DHT22;4736;52.508;13.422;2023-03-01T12:53:22;9.50;39.50
9393;DHT22;4736;52.508;13.422;2023-03-01T12:56:29;9.50;39.20
9393;DHT22;4736;52.508;13.422;2023-03-01T12:59:38;9.40;38.70
9393;DHT22;4736;52.508;13.422;2023-03-01T13:02:47;9.40;39.00
9393;DHT22;4736;52.508;13.422;2023-03-01T13:06:06;9.40;39.20
9393;DHT22;4736;52.508;13.422;2023-03-01T13:09:18;9.50;39.30
9393;DHT22;4736;52.508;13.422;2023-03-01T13:12:51;9.60;38.70
9393;DHT22;4736;52.508;13.422;2023-03-01T13:15:56;9.60;38.20
9393;DHT22;4736;52.508;13.422;2023-03-01T13:19:06;9.60;38.10
9393;DHT22;4736;52.508;13.422;2023-03-01T13:22:30;9.50;38.00
9393;DHT22;4736;52.508;13.422;2023-03-01T13:25:59;9.50;38.20
9393;DHT22;4736;52.508;13.422;2023-03-01T13:29:25;9.50;38.60
9393;DHT22;4736;52.508;13.422;2023-03-01T13:32:30;9.60;38.20
9393;DHT22;4736;52.508;13.422;2023-03-01T13:35:45;9.60;37.70
9393;DHT22;4736;52.508;13.422;2023-03-01T13:38:55;9.40;37.50
9393;DHT22;4736;52.508;13.422;2023-03-01T13:42:00;9.20;38.70
9393;DHT22;4736;52.508;13.422;2023-03-01T13:45:35;9.20;39.90
9393;DHT22;4736;52.508;13.422;2023-03-01T13:48:40;9.00;39.60
9393;DHT22;4736;52.508;13.422;2023-03-01T13:51:46;9.00;39.40
9393;DHT22;4736;52.508;13.422;2023-03-01T13:54:50;9.00;40.00
9393;DHT22;4736;52.508;13.422;2023-03-01T13:57:56;9.00;39.90
9393;DHT22;4736;52.508;13.422;2023-03-01T14:01:02;8.90;40.00
9393;DHT22;4736;52.508;13.422;2023-03-01T14:04:20;9.00;39.60
9393;DHT22;4736;52.508;13.422;2023-03-01T14:07:25;9.00;40.10
9393;DHT22;4736;52.508;13.422;2023-03-01T14:10:36;9.00;40.60
9393;DHT22;4736;52.508;13.422;2023-03-01T14:14:07;9.10;41.00
9393;DHT22;4736;52.508;13.422;2023-03-01T14:20:59;9.40;41.00
9393;DHT22;4736;52.508;13.422;2023-03-01T14:24:03;9.40;40.20
9393;DHT22;4736;52.508;13.422;2023-03-01T14:27:11;9.40;40.70
9393;DHT22;4736;52.508;13.422;2023-03-01T14:30:18;9.40;40.30
9393;DHT22;4736;52.508;13.422;2023-03-01T14:33:24;9.40;40.40
9393;DHT22;4736;52.508;13.422;2023-03-01T14:36:30;9.40;40.50
9393;DHT22;4736;52.508;13.422;2023-03-01T14:39:33;9.40;40.70
9393;DHT22;4736;52.508;13.422;2023-03-01T14:42:37;9.40;40.70
9393;DHT22;4736;52.508;13.422;2023-03-01T14:45:47;9.20;41.20
9393;DHT22;4736;52.508;13.422;2023-03-01T14:48:51;9.10;42.00
9393;DHT22;4736;52.508;13.422;2023-03-01T14:52:00;9.00;42.20
9393;DHT22;4736;52.508;13.422;2023-03-01T14:55:06;9.00;42.20
9393;DHT22;4736;52.508;13.422;2023-03-01T14:58:13;9.00;42.30
9393;DHT22;4736;52.508;13.422;2023-03-01T15:01:18;8.90;43.10
9393;DHT22;4736;52.508;13.422;2023-03-01T15:04:21;8.80;43.50
9393;DHT22;4736;52.508;13.422;2023-03-01T15:07:30;8.80;43.60
9393;DHT22;4736;52.508;13.422;2023-03-01T15:10:37;8.60;43.90
9393;DHT22;4736;52.508;13.422;2023-03-01T15:13:41;8.40;44.10
9393;DHT22;4736;52.508;13.422;2023-03-01T15:16:46;8.30;44.50
9393;DHT22;4736;52.508;13.422;2023-03-01T15:19:51;8.20;44.30
9393;DHT22;4736;52.508;13.422;2023-03-01T15:22:56;8.10;44.60
9393;DHT22;4736;52.508;13.422;2023-03-01T15:25:59;8.00;44.80
9393;DHT22;4736;52.508;13.422;2023-03-01T15:29:02;7.80;44.90
9393;DHT22;4736;52.508;13.422;2023-03-01T15:32:23;7.70;45.10
9393;DHT22;4736;52.508;13.422;2023-03-01T15:35:40;7.60;45.40
9393;DHT22;4736;52.508;13.422;2023-03-01T15:38:53;7.50;45.50
9393;DHT22;4736;52.508;13.422;2023-03-01T15:41:57;7.40;45.90
9393;DHT22;4736;52.508;13.422;2023-03-01T15:45:09;7.20;46.10
9393;DHT22;4736;52.508;13.422;2023-03-01T15:48:17;7.10;46.20
9393;DHT22;4736;52.508;13.422;2023-03-01T15:51:27;7.10;46.20
9393;DHT22;4736;52.508;13.422;2023-03-01T15:54:33;7.00;46.30
9393;DHT22;4736;52.508;13.422;2023-03-01T15:57:36;7.00;46.60
9393;DHT22;4736;52.508;13.422;2023-03-01T16:00:39;6.90;46.80
9393;DHT22;4736;52.508;13.422;2023-03-01T16:03:59;6.80;46.70
9393;DHT22;4736;52.508;13.422;2023-03-01T16:07:03;6.80;47.00
9393;DHT22;4736;52.508;13.422;2023-03-01T16:10:08;6.70;47.10
9393;DHT22;4736;52.508;13.422;2023-03-01T16:13:11;6.60;47.30
9393;DHT22;4736;52.508;13.422;2023-03-01T16:16:15;6.50;47.50
9393;DHT22;4736;52.508;13.422;2023-03-01T16:19:18;6.40;47.70
9393;DHT22;4736;52.508;13.422;2023-03-01T16:22:21;6.40;48.00
9393;DHT22;4736;52.508;13.422;2023-03-01T16:25:29;6.30;48.00
9393;DHT22;4736;52.508;13.422;2023-03-01T16:28:32;6.20;48.10
9393;DHT22;4736;52.508;13.422;2023-03-01T16:31:35;6.10;48.50
9393;DHT22;4736;52.508;13.422;2023-03-01T16:34:38;6.00;48.80
9393;DHT22;4736;52.508;13.422;2023-03-01T16:37:42;5.90;48.80
9393;DHT22;4736;52.508;13.422;2023-03-01T16:40:50;5.90;48.90
9393;DHT22;4736;52.508;13.422;2023-03-01T16:43:53;5.80;49.10
9393;DHT22;4736;52.508;13.422;2023-03-01T16:46:56;5.70;49.40
9393;DHT22;4736;52.508;13.422;2023-03-01T16:49:59;5.60;49.60
9393;DHT22;4736;52.508;13.422;2023-03-01T16:53:02;5.50;49.70
9393;DHT22;4736;52.508;13.422;2023-03-01T16:56:09;5.50;49.80
9393;DHT22;4736;52.508;13.422;2023-03-01T16:59:13;5.40;50.00
9393;DHT22;4736;52.508;13.422;2023-03-01T17:02:16;5.30;50.40
9393;DHT22;4736;52.508;13.422;2023-03-01T17:05:21;5.20;50.70
9393;DHT22;4736;52.508;13.422;2023-03-01T17:08:26;5.20;50.80
9393;DHT22;4736;52.508;13.422;2023-03-01T17:11:30;5.00;51.00
9393;DHT22;4736;52.508;13.422;2023-03-01T17:14:35;5.00;51.20
9393;DHT22;4736;52.508;13.422;2023-03-01T17:17:39;5.00;51.50
9393;DHT22;4736;52.508;13.422;2023-03-01T17:20:42;4.90;51.80
9393;DHT22;4736;52.508;13.422;2023-03-01T17:23:46;4.80;51.80
9393;DHT22;4736;52.508;13.422;2023-03-01T17:26:52;4.70;52.00
9393;DHT22;4736;52.508;13.422;2023-03-01T17:29:55;4.70;52.10
9393;DHT22;4736;52.508;13.422;2023-03-01T17:32:58;4.70;52.20
9393;DHT22;4736;52.508;13.422;2023-03-01T17:36:01;4.60;52.30
9393;DHT22;4736;52.508;13.422;2023-03-01T17:39:05;4.50;52.50
9393;DHT22;4736;52.508;13.422;2023-03-01T17:42:09;4.50;52.60
9393;DHT22;4736;52.508;13.422;2023-03-01T17:45:12;4.40;52.80
9393;DHT22;4736;52.508;13.422;2023-03-01T17:48:15;4.40;53.00
9393;DHT22;4736;52.508;13.422;2023-03-01T17:51:20;4.30;53.40
9393;DHT22;4736;52.508;13.422;2023-03-01T17:54:23;4.30;53.70
9393;DHT22;4736;52.508;13.422;2023-03-01T17:57:28;4.20;54.00
9393;DHT22;4736;52.508;13.422;2023-03-01T18:00:31;4.10;54.20
9393;DHT22;4736;52.508;13.422;2023-03-01T18:03:35;4.10;54.40
9393;DHT22;4736;52.508;13.422;2023-03-01T18:06:38;4.00;54.50
9393;DHT22;4736;52.508;13.422;2023-03-01T18:09:42;4.00;54.60
9393;DHT22;4736;52.508;13.422;2023-03-01T18:12:47;3.90;54.70
9393;DHT22;4736;52.508;13.422;2023-03-01T18:15:50;3.90;54.90
9393;DHT22;4736;52.508;13.422;2023-03-01T18:18:54;3.90;55.00
9393;DHT22;4736;52.508;13.422;2023-03-01T18:21:57;3.90;55.20
9393;DHT22;4736;52.508;13.422;2023-03-01T18:25:00;3.70;55.30
9393;DHT22;4736;52.508;13.422;2023-03-01T18:28:06;3.70;55.40
9393;DHT22;4736;52.508;13.422;2023-03-01T18:31:09;3.60;55.60
9393;DHT22;4736;52.508;13.422;2023-03-01T18:34:13;3.60;55.80
9393;DHT22;4736;52.508;13.422;2023-03-01T18:37:16;3.50;56.00
9393;DHT22;4736;52.508;13.422;2023-03-01T18:40:19;3.50;56.20
9393;DHT22;4736;52.508;13.422;2023-03-01T18:43:24;3.50;56.30
9393;DHT22;4736;52.508;13.422;2023-03-01T18:46:29;3.40;56.40
9393;DHT22;4736;52.508;13.422;2023-03-01T18:49:35;3.30;56.60
9393;DHT22;4736;52.508;13.422;2023-03-01T18:52:38;3.30;56.80
9393;DHT22;4736;52.508;13.422;2023-03-01T18:55:41;3.30;57.10
9393;DHT22;4736;52.508;13.422;2023-03-01T18:58:46;3.30;57.30
9393;DHT22;4736;52.508;13.422;2023-03-01T19:01:49;3.20;57.40
9393;DHT22;4736;52.508;13.422;2023-03-01T19:04:52;3.20;57.50
9393;DHT22;4736;52.508;13.422;2023-03-01T19:07:56;3.10;57.60
9393;DHT22;4736;52.508;13.422;2023-03-01T19:11:00;3.10;57.80
9393;DHT22;4736;52.508;13.422;2023-03-01T19:14:06;3.10;58.00
9393;DHT22;4736;52.508;13.422;2023-03-01T19:17:09;3.10;58.30
9393;DHT22;4736;52.508;13.422;2023-03-01T19:20:12;3.00;58.60
9393;DHT22;4736;52.508;13.422;2023-03-01T19:23:15;3.00;58.60
9393;DHT22;4736;52.508;13.422;2023-03-01T19:26:23;3.00;58.70
9393;DHT22;4736;52.508;13.422;2023-03-01T19:29:28;2.90;58.80
9393;DHT22;4736;52.508;13.422;2023-03-01T19:32:32;2.90;59.00
9393;DHT22;4736;52.508;13.422;2023-03-01T19:35:35;2.90;59.10
9393;DHT22;4736;52.508;13.422;2023-03-01T19:38:39;2.90;59.10
9393;DHT22;4736;52.508;13.422;2023-03-01T19:41:43;2.80;59.10
9393;DHT22;4736;52.508;13.422;2023-03-01T19:44:51;2.80;59.20
9393;DHT22;4736;52.508;13.422;2023-03-01T19:47:54;2.70;59.30
9393;DHT22;4736;52.508;13.422;2023-03-01T19:50:58;2.70;59.30
9393;DHT22;4736;52.508;13.422;2023-03-01T19:54:01;2.70;59.30
9393;DHT22;4736;52.508;13.422;2023-03-01T19:57:06;2.50;59.50
9393;DHT22;4736;52.508;13.422;2023-03-01T20:00:12;2.50;59.60
9393;DHT22;4736;52.508;13.422;2023-03-01T20:03:15;2.50;59.70
9393;DHT22;4736;52.508;13.422;2023-03-01T20:06:19;2.50;59.70
9393;DHT22;4736;52.508;13.422;2023-03-01T20:09:22;2.40;59.80
9393;DHT22;4736;52.508;13.422;2023-03-01T20:12:25;2.30;59.90
9393;DHT22;4736;52.508;13.422;2023-03-01T20:15:30;2.30;60.00